Terminal Aerodrome Forecast
Issued by NWS

Home | Current Version | Previous Version | Text Only | Print | Product List | Glossary On
Versions: 1 2 3 4 5 6 7 8 9 10 11 12 13 14 15 16 17 18 19 20 21 22 23 24 25 26 27 28 29 30 31 32 33 34 35 36
000
FTUS42 KRAH 031140
TAFINT
TAF
KINT 031140Z 0312/0412 VRB03KT 4SM -RA BR OVC004
      TEMPO 0312/0314 SCT006 SCT020 BKN060
     FM031400 24006KT P6SM SCT035 SCT250
     FM031800 24006KT P6SM VCTS SCT035CB BKN060
      TEMPO 0319/0322 27015G30KT 2SM -SHRA SCT020 BKN035
     FM040000 20009KT P6SM VCSH BKN040=

USA.gov is the U.S. government's official web portal to all federal, state and local government web resources and services.